sensor_id;sensor_type;location;lat;lon;timestamp;P1;durP1;ratioP1;P2;durP2;ratioP2
38797;SDS011;24546;52.240;16.826;2023-02-28T00:03:38;29.80;;;14.75;;
38797;SDS011;24546;52.240;16.826;2023-02-28T00:08:39;25.13;;;13.57;;
38797;SDS011;24546;52.240;16.826;2023-02-28T00:13:41;27.83;;;14.48;;
38797;SDS011;24546;52.240;16.826;2023-02-28T00:18:46;25.33;;;14.70;;
38797;SDS011;24546;52.240;16.826;2023-02-28T00:23:48;26.88;;;13.93;;
38797;SDS011;24546;52.240;16.826;2023-02-28T00:28:51;25.67;;;13.88;;
38797;SDS011;24546;52.240;16.826;2023-02-28T00:33:52;28.25;;;14.80;;
38797;SDS011;24546;52.240;16.826;2023-02-28T00:38:54;28.67;;;12.93;;
38797;SDS011;24546;52.240;16.826;2023-02-28T00:43:55;25.17;;;14.70;;
38797;SDS011;24546;52.240;16.826;2023-02-28T00:48:56;21.85;;;12.48;;
38797;SDS011;24546;52.240;16.826;2023-02-28T00:53:57;24.48;;;13.07;;
38797;SDS011;24546;52.240;16.826;2023-02-28T00:58:58;22.13;;;12.52;;
38797;SDS011;24546;52.240;16.826;2023-02-28T01:03:59;19.35;;;10.80;;
38797;SDS011;24546;52.240;16.826;2023-02-28T01:09:01;20.13;;;11.35;;
38797;SDS011;24546;52.240;16.826;2023-02-28T01:14:03;19.90;;;11.88;;
38797;SDS011;24546;52.240;16.826;2023-02-28T01:19:05;20.25;;;10.60;;
38797;SDS011;24546;52.240;16.826;2023-02-28T01:24:06;22.63;;;11.60;;
38797;SDS011;24546;52.240;16.826;2023-02-28T01:29:09;24.05;;;11.57;;
38797;SDS011;24546;52.240;16.826;2023-02-28T01:34:10;22.90;;;12.60;;
38797;SDS011;24546;52.240;16.826;2023-02-28T01:39:11;23.90;;;12.60;;
38797;SDS011;24546;52.240;16.826;2023-02-28T01:49:51;26.65;;;13.38;;
38797;SDS011;24546;52.240;16.826;2023-02-28T01:54:54;25.67;;;13.23;;
38797;SDS011;24546;52.240;16.826;2023-02-28T02:00:00;23.67;;;12.18;;
38797;SDS011;24546;52.240;16.826;2023-02-28T02:05:17;22.67;;;11.90;;
38797;SDS011;24546;52.240;16.826;2023-02-28T02:10:40;20.17;;;12.23;;
38797;SDS011;24546;52.240;16.826;2023-02-28T02:15:57;22.73;;;12.55;;
38797;SDS011;24546;52.240;16.826;2023-02-28T02:42:58;31.98;;;14.57;;
38797;SDS011;24546;52.240;16.826;2023-02-28T02:47:40;25.17;;;13.90;;
38797;SDS011;24546;52.240;16.826;2023-02-28T02:52:45;24.52;;;13.35;;
38797;SDS011;24546;52.240;16.826;2023-02-28T02:57:51;26.15;;;14.25;;
38797;SDS011;24546;52.240;16.826;2023-02-28T03:02:55;24.73;;;13.98;;
38797;SDS011;24546;52.240;16.826;2023-02-28T03:07:57;26.55;;;13.68;;
38797;SDS011;24546;52.240;16.826;2023-02-28T03:18:31;25.08;;;15.10;;
38797;SDS011;24546;52.240;16.826;2023-02-28T03:23:42;26.92;;;14.73;;
38797;SDS011;24546;52.240;16.826;2023-02-28T03:29:02;28.15;;;14.57;;
38797;SDS011;24546;52.240;16.826;2023-02-28T03:34:12;28.60;;;16.10;;
38797;SDS011;24546;52.240;16.826;2023-02-28T03:39:37;29.60;;;14.45;;
38797;SDS011;24546;52.240;16.826;2023-02-28T03:44:45;26.35;;;14.40;;
38797;SDS011;24546;52.240;16.826;2023-02-28T03:50:20;29.77;;;15.68;;
38797;SDS011;24546;52.240;16.826;2023-02-28T03:55:24;34.30;;;15.57;;
38797;SDS011;24546;52.240;16.826;2023-02-28T04:00:46;31.33;;;16.25;;
38797;SDS011;24546;52.240;16.826;2023-02-28T04:05:53;29.55;;;16.25;;
38797;SDS011;24546;52.240;16.826;2023-02-28T04:10:57;31.45;;;15.95;;
38797;SDS011;24546;52.240;16.826;2023-02-28T04:16:07;30.70;;;15.60;;
38797;SDS011;24546;52.240;16.826;2023-02-28T04:21:12;29.48;;;15.40;;
38797;SDS011;24546;52.240;16.826;2023-02-28T04:26:13;32.10;;;17.58;;
38797;SDS011;24546;52.240;16.826;2023-02-28T04:31:14;35.60;;;16.30;;
38797;SDS011;24546;52.240;16.826;2023-02-28T04:36:15;32.42;;;16.35;;
38797;SDS011;24546;52.240;16.826;2023-02-28T04:41:18;30.52;;;16.65;;
38797;SDS011;24546;52.240;16.826;2023-02-28T04:46:20;29.08;;;16.52;;
38797;SDS011;24546;52.240;16.826;2023-02-28T04:51:21;33.95;;;16.27;;
38797;SDS011;24546;52.240;16.826;2023-02-28T04:56:22;31.05;;;16.63;;
38797;SDS011;24546;52.240;16.826;2023-02-28T05:01:24;31.85;;;16.73;;
38797;SDS011;24546;52.240;16.826;2023-02-28T05:06:28;34.63;;;16.85;;
38797;SDS011;24546;52.240;16.826;2023-02-28T05:11:31;30.05;;;15.80;;
38797;SDS011;24546;52.240;16.826;2023-02-28T05:16:35;31.38;;;15.02;;
38797;SDS011;24546;52.240;16.826;2023-02-28T05:21:37;28.25;;;15.38;;
38797;SDS011;24546;52.240;16.826;2023-02-28T05:26:40;31.83;;;16.23;;
38797;SDS011;24546;52.240;16.826;2023-02-28T05:31:42;26.05;;;14.43;;
38797;SDS011;24546;52.240;16.826;2023-02-28T05:36:43;27.98;;;14.85;;
38797;SDS011;24546;52.240;16.826;2023-02-28T05:41:44;28.38;;;15.38;;
38797;SDS011;24546;52.240;16.826;2023-02-28T05:46:45;25.50;;;13.80;;
38797;SDS011;24546;52.240;16.826;2023-02-28T05:51:46;34.33;;;15.18;;
38797;SDS011;24546;52.240;16.826;2023-02-28T05:56:47;31.67;;;17.13;;
38797;SDS011;24546;52.240;16.826;2023-02-28T06:01:48;30.83;;;15.80;;
38797;SDS011;24546;52.240;16.826;2023-02-28T06:06:49;35.88;;;17.35;;
38797;SDS011;24546;52.240;16.826;2023-02-28T06:11:51;37.50;;;18.63;;
38797;SDS011;24546;52.240;16.826;2023-02-28T06:16:52;42.63;;;21.00;;
38797;SDS011;24546;52.240;16.826;2023-02-28T06:21:53;47.28;;;23.15;;
38797;SDS011;24546;52.240;16.826;2023-02-28T06:26:55;44.17;;;23.83;;
38797;SDS011;24546;52.240;16.826;2023-02-28T06:31:56;36.65;;;19.95;;
38797;SDS011;24546;52.240;16.826;2023-02-28T06:36:57;48.90;;;23.77;;
38797;SDS011;24546;52.240;16.826;2023-02-28T06:42:02;43.30;;;24.70;;
38797;SDS011;24546;52.240;16.826;2023-02-28T06:47:04;33.85;;;20.98;;
38797;SDS011;24546;52.240;16.826;2023-02-28T06:52:06;36.53;;;21.30;;
38797;SDS011;24546;52.240;16.826;2023-02-28T06:57:07;50.97;;;26.77;;
38797;SDS011;24546;52.240;16.826;2023-02-28T07:02:08;58.17;;;29.33;;
38797;SDS011;24546;52.240;16.826;2023-02-28T07:07:09;46.60;;;26.13;;
38797;SDS011;24546;52.240;16.826;2023-02-28T07:12:10;57.80;;;29.13;;
38797;SDS011;24546;52.240;16.826;2023-02-28T07:17:11;61.95;;;32.00;;
38797;SDS011;24546;52.240;16.826;2023-02-28T07:22:12;64.63;;;33.35;;
38797;SDS011;24546;52.240;16.826;2023-02-28T07:27:13;51.03;;;28.00;;
38797;SDS011;24546;52.240;16.826;2023-02-28T07:32:24;47.53;;;26.17;;
38797;SDS011;24546;52.240;16.826;2023-02-28T07:37:24;51.38;;;28.80;;
38797;SDS011;24546;52.240;16.826;2023-02-28T07:42:26;54.13;;;28.23;;
38797;SDS011;24546;52.240;16.826;2023-02-28T07:47:28;62.35;;;33.42;;
38797;SDS011;24546;52.240;16.826;2023-02-28T07:52:30;47.08;;;25.67;;
38797;SDS011;24546;52.240;16.826;2023-02-28T07:57:31;45.13;;;24.23;;
38797;SDS011;24546;52.240;16.826;2023-02-28T08:02:32;35.85;;;20.38;;
38797;SDS011;24546;52.240;16.826;2023-02-28T08:07:33;38.55;;;21.88;;
38797;SDS011;24546;52.240;16.826;2023-02-28T08:12:34;40.70;;;21.75;;
38797;SDS011;24546;52.240;16.826;2023-02-28T08:17:35;40.90;;;22.77;;
38797;SDS011;24546;52.240;16.826;2023-02-28T08:22:36;37.95;;;22.85;;
38797;SDS011;24546;52.240;16.826;2023-02-28T08:27:37;31.33;;;19.27;;
38797;SDS011;24546;52.240;16.826;2023-02-28T08:32:38;35.28;;;19.50;;
38797;SDS011;24546;52.240;16.826;2023-02-28T08:37:39;51.92;;;27.50;;
38797;SDS011;24546;52.240;16.826;2023-02-28T08:42:40;303.77;;;90.20;;
38797;SDS011;24546;52.240;16.826;2023-02-28T08:47:41;127.30;;;48.55;;
38797;SDS011;24546;52.240;16.826;2023-02-28T08:52:42;81.03;;;33.30;;
38797;SDS011;24546;52.240;16.826;2023-02-28T08:57:44;53.90;;;25.08;;
38797;SDS011;24546;52.240;16.826;2023-02-28T09:02:45;36.55;;;20.27;;
38797;SDS011;24546;52.240;16.826;2023-02-28T09:07:46;26.38;;;15.80;;
38797;SDS011;24546;52.240;16.826;2023-02-28T09:12:47;31.15;;;17.48;;
38797;SDS011;24546;52.240;16.826;2023-02-28T09:17:48;23.95;;;14.90;;
38797;SDS011;24546;52.240;16.826;2023-02-28T09:22:49;20.38;;;12.75;;
38797;SDS011;24546;52.240;16.826;2023-02-28T09:27:57;24.13;;;13.77;;
38797;SDS011;24546;52.240;16.826;2023-02-28T09:32:59;17.88;;;10.45;;
38797;SDS011;24546;52.240;16.826;2023-02-28T09:37:59;20.88;;;11.05;;
38797;SDS011;24546;52.240;16.826;2023-02-28T09:43:03;21.58;;;12.50;;
38797;SDS011;24546;52.240;16.826;2023-02-28T09:53:26;21.27;;;11.02;;
38797;SDS011;24546;52.240;16.826;2023-02-28T09:58:42;18.95;;;10.75;;
38797;SDS011;24546;52.240;16.826;2023-02-28T10:09:17;16.48;;;9.90;;
38797;SDS011;24546;52.240;16.826;2023-02-28T10:14:27;16.77;;;10.02;;
38797;SDS011;24546;52.240;16.826;2023-02-28T10:24:50;15.25;;;10.02;;
38797;SDS011;24546;52.240;16.826;2023-02-28T10:29:54;11.85;;;7.10;;
38797;SDS011;24546;52.240;16.826;2023-02-28T10:35:15;12.38;;;7.05;;
38797;SDS011;24546;52.240;16.826;2023-02-28T10:45:17;13.45;;;7.55;;
38797;SDS011;24546;52.240;16.826;2023-02-28T10:50:39;13.95;;;8.50;;
38797;SDS011;24546;52.240;16.826;2023-02-28T11:01:01;12.45;;;7.78;;
38797;SDS011;24546;52.240;16.826;2023-02-28T11:06:12;10.18;;;7.07;;
38797;SDS011;24546;52.240;16.826;2023-02-28T11:11:20;13.20;;;7.85;;
38797;SDS011;24546;52.240;16.826;2023-02-28T11:16:31;14.57;;;8.57;;
38797;SDS011;24546;52.240;16.826;2023-02-28T11:21:35;12.90;;;7.80;;
38797;SDS011;24546;52.240;16.826;2023-02-28T11:37:02;17.00;;;9.63;;
38797;SDS011;24546;52.240;16.826;2023-02-28T11:52:48;10.23;;;6.80;;
38797;SDS011;24546;52.240;16.826;2023-02-28T11:58:01;12.50;;;7.50;;
38797;SDS011;24546;52.240;16.826;2023-02-28T12:08:49;9.73;;;6.80;;
38797;SDS011;24546;52.240;16.826;2023-02-28T12:30:22;14.00;;;7.63;;
38797;SDS011;24546;52.240;16.826;2023-02-28T12:35:31;12.85;;;7.55;;
38797;SDS011;24546;52.240;16.826;2023-02-28T12:45:59;14.85;;;9.48;;
38797;SDS011;24546;52.240;16.826;2023-02-28T12:51:23;10.82;;;7.75;;
38797;SDS011;24546;52.240;16.826;2023-02-28T13:13:04;37.55;;;15.90;;
38797;SDS011;24546;52.240;16.826;2023-02-28T13:18:20;17.00;;;9.82;;
38797;SDS011;24546;52.240;16.826;2023-02-28T13:28:58;12.10;;;7.80;;
38797;SDS011;24546;52.240;16.826;2023-02-28T13:34:15;16.10;;;8.90;;
38797;SDS011;24546;52.240;16.826;2023-02-28T13:45:19;12.15;;;6.97;;
38797;SDS011;24546;52.240;16.826;2023-02-28T13:55:25;14.30;;;7.47;;
38797;SDS011;24546;52.240;16.826;2023-02-28T14:05:46;12.88;;;8.50;;
38797;SDS011;24546;52.240;16.826;2023-02-28T14:10:49;30.95;;;12.10;;
38797;SDS011;24546;52.240;16.826;2023-02-28T14:16:03;46.40;;;16.38;;
38797;SDS011;24546;52.240;16.826;2023-02-28T14:26:29;13.63;;;8.70;;
38797;SDS011;24546;52.240;16.826;2023-02-28T14:37:37;31.38;;;15.00;;
38797;SDS011;24546;52.240;16.826;2023-02-28T14:42:45;20.23;;;10.60;;
38797;SDS011;24546;52.240;16.826;2023-02-28T14:47:49;30.45;;;14.75;;
38797;SDS011;24546;52.240;16.826;2023-02-28T14:52:52;19.42;;;11.30;;
38797;SDS011;24546;52.240;16.826;2023-02-28T14:57:56;16.50;;;10.48;;
38797;SDS011;24546;52.240;16.826;2023-02-28T15:03:00;23.98;;;13.82;;
38797;SDS011;24546;52.240;16.826;2023-02-28T15:13:18;21.52;;;10.45;;
38797;SDS011;24546;52.240;16.826;2023-02-28T15:23:55;16.33;;;9.88;;
38797;SDS011;24546;52.240;16.826;2023-02-28T15:29:24;15.30;;;9.80;;
38797;SDS011;24546;52.240;16.826;2023-02-28T15:34:30;14.40;;;9.77;;
38797;SDS011;24546;52.240;16.826;2023-02-28T15:39:41;18.20;;;10.50;;
38797;SDS011;24546;52.240;16.826;2023-02-28T15:44:44;18.55;;;10.10;;
38797;SDS011;24546;52.240;16.826;2023-02-28T15:54:48;21.92;;;12.98;;
38797;SDS011;24546;52.240;16.826;2023-02-28T15:59:54;19.27;;;11.23;;
38797;SDS011;24546;52.240;16.826;2023-02-28T16:05:12;19.23;;;11.50;;
38797;SDS011;24546;52.240;16.826;2023-02-28T16:10:17;19.38;;;11.13;;
38797;SDS011;24546;52.240;16.826;2023-02-28T16:15:19;23.55;;;11.68;;
38797;SDS011;24546;52.240;16.826;2023-02-28T16:20:29;24.33;;;13.85;;
38797;SDS011;24546;52.240;16.826;2023-02-28T16:25:37;27.73;;;13.77;;
38797;SDS011;24546;52.240;16.826;2023-02-28T16:30:40;30.15;;;15.15;;
38797;SDS011;24546;52.240;16.826;2023-02-28T16:35:41;30.38;;;14.77;;
38797;SDS011;24546;52.240;16.826;2023-02-28T16:40:42;27.38;;;13.88;;
38797;SDS011;24546;52.240;16.826;2023-02-28T16:45:43;31.15;;;15.18;;
38797;SDS011;24546;52.240;16.826;2023-02-28T16:50:44;29.33;;;15.02;;
38797;SDS011;24546;52.240;16.826;2023-02-28T16:55:45;24.75;;;14.05;;
38797;SDS011;24546;52.240;16.826;2023-02-28T17:00:47;27.67;;;15.63;;
38797;SDS011;24546;52.240;16.826;2023-02-28T17:05:49;29.60;;;17.10;;
38797;SDS011;24546;52.240;16.826;2023-02-28T17:10:50;34.35;;;17.77;;
38797;SDS011;24546;52.240;16.826;2023-02-28T17:15:51;30.58;;;17.33;;
38797;SDS011;24546;52.240;16.826;2023-02-28T17:20:52;33.75;;;18.98;;
38797;SDS011;24546;52.240;16.826;2023-02-28T17:25:53;34.30;;;19.05;;
38797;SDS011;24546;52.240;16.826;2023-02-28T17:30:54;35.88;;;20.42;;
38797;SDS011;24546;52.240;16.826;2023-02-28T17:35:55;39.63;;;22.52;;
38797;SDS011;24546;52.240;16.826;2023-02-28T17:40:56;38.03;;;20.80;;
38797;SDS011;24546;52.240;16.826;2023-02-28T17:45:59;35.78;;;19.75;;
38797;SDS011;24546;52.240;16.826;2023-02-28T17:51:00;34.65;;;21.27;;
38797;SDS011;24546;52.240;16.826;2023-02-28T17:56:01;37.67;;;19.52;;
38797;SDS011;24546;52.240;16.826;2023-02-28T18:01:02;41.58;;;21.75;;
38797;SDS011;24546;52.240;16.826;2023-02-28T18:06:03;36.85;;;20.80;;
38797;SDS011;24546;52.240;16.826;2023-02-28T18:11:05;43.80;;;22.35;;
38797;SDS011;24546;52.240;16.826;2023-02-28T18:16:07;52.25;;;27.17;;
38797;SDS011;24546;52.240;16.826;2023-02-28T18:21:09;49.58;;;28.58;;
38797;SDS011;24546;52.240;16.826;2023-02-28T18:26:12;52.83;;;28.60;;
38797;SDS011;24546;52.240;16.826;2023-02-28T18:31:15;61.33;;;32.00;;
38797;SDS011;24546;52.240;16.826;2023-02-28T18:36:19;57.65;;;29.92;;
38797;SDS011;24546;52.240;16.826;2023-02-28T18:41:21;61.88;;;32.83;;
38797;SDS011;24546;52.240;16.826;2023-02-28T18:46:22;53.47;;;28.75;;
38797;SDS011;24546;52.240;16.826;2023-02-28T18:51:23;63.22;;;32.17;;
38797;SDS011;24546;52.240;16.826;2023-02-28T18:56:25;72.72;;;36.38;;
38797;SDS011;24546;52.240;16.826;2023-02-28T19:01:28;68.97;;;34.25;;
38797;SDS011;24546;52.240;16.826;2023-02-28T19:06:32;74.60;;;38.63;;
38797;SDS011;24546;52.240;16.826;2023-02-28T19:11:33;73.72;;;40.33;;
38797;SDS011;24546;52.240;16.826;2023-02-28T19:16:34;83.28;;;42.10;;
38797;SDS011;24546;52.240;16.826;2023-02-28T19:21:35;76.10;;;38.65;;
38797;SDS011;24546;52.240;16.826;2023-02-28T19:26:36;69.65;;;35.67;;
38797;SDS011;24546;52.240;16.826;2023-02-28T19:31:37;69.15;;;34.80;;
38797;SDS011;24546;52.240;16.826;2023-02-28T19:36:38;61.67;;;31.48;;
38797;SDS011;24546;52.240;16.826;2023-02-28T19:41:39;63.08;;;30.10;;
38797;SDS011;24546;52.240;16.826;2023-02-28T19:46:40;59.95;;;30.90;;
38797;SDS011;24546;52.240;16.826;2023-02-28T19:51:41;58.35;;;30.58;;
38797;SDS011;24546;52.240;16.826;2023-02-28T19:56:43;48.25;;;24.85;;
38797;SDS011;24546;52.240;16.826;2023-02-28T20:01:44;45.70;;;25.42;;
38797;SDS011;24546;52.240;16.826;2023-02-28T20:06:46;49.08;;;25.52;;
38797;SDS011;24546;52.240;16.826;2023-02-28T20:11:47;48.10;;;24.30;;
38797;SDS011;24546;52.240;16.826;2023-02-28T20:16:49;44.95;;;23.20;;
38797;SDS011;24546;52.240;16.826;2023-02-28T20:21:50;49.53;;;24.20;;
38797;SDS011;24546;52.240;16.826;2023-02-28T20:26:52;46.15;;;24.48;;
38797;SDS011;24546;52.240;16.826;2023-02-28T20:31:56;41.67;;;24.20;;
38797;SDS011;24546;52.240;16.826;2023-02-28T20:36:57;46.78;;;23.25;;
38797;SDS011;24546;52.240;16.826;2023-02-28T20:41:58;45.30;;;24.52;;
38797;SDS011;24546;52.240;16.826;2023-02-28T20:46:59;34.63;;;19.75;;
38797;SDS011;24546;52.240;16.826;2023-02-28T20:52:00;41.53;;;23.17;;
38797;SDS011;24546;52.240;16.826;2023-02-28T20:57:02;37.05;;;20.20;;
38797;SDS011;24546;52.240;16.826;2023-02-28T21:02:03;37.58;;;18.90;;
38797;SDS011;24546;52.240;16.826;2023-02-28T21:07:04;35.33;;;18.77;;
38797;SDS011;24546;52.240;16.826;2023-02-28T21:12:05;34.22;;;18.25;;
38797;SDS011;24546;52.240;16.826;2023-02-28T21:17:06;36.08;;;17.98;;
38797;SDS011;24546;52.240;16.826;2023-02-28T21:22:09;35.35;;;18.70;;
38797;SDS011;24546;52.240;16.826;2023-02-28T21:27:11;40.72;;;20.85;;
38797;SDS011;24546;52.240;16.826;2023-02-28T21:32:12;39.22;;;20.92;;
38797;SDS011;24546;52.240;16.826;2023-02-28T21:37:13;39.88;;;20.70;;
38797;SDS011;24546;52.240;16.826;2023-02-28T21:42:14;37.67;;;22.02;;
38797;SDS011;24546;52.240;16.826;2023-02-28T21:47:16;38.92;;;20.77;;
38797;SDS011;24546;52.240;16.826;2023-02-28T21:52:17;38.17;;;20.00;;
38797;SDS011;24546;52.240;16.826;2023-02-28T21:57:21;34.63;;;18.60;;
38797;SDS011;24546;52.240;16.826;2023-02-28T22:02:22;44.08;;;22.27;;
38797;SDS011;24546;52.240;16.826;2023-02-28T22:07:22;49.33;;;23.85;;
38797;SDS011;24546;52.240;16.826;2023-02-28T22:12:23;44.10;;;22.27;;
38797;SDS011;24546;52.240;16.826;2023-02-28T22:17:24;41.35;;;22.00;;
38797;SDS011;24546;52.240;16.826;2023-02-28T22:22:25;48.47;;;24.02;;
38797;SDS011;24546;52.240;16.826;2023-02-28T22:27:26;43.72;;;22.23;;
38797;SDS011;24546;52.240;16.826;2023-02-28T22:32:27;44.28;;;21.27;;
38797;SDS011;24546;52.240;16.826;2023-02-28T22:37:28;43.65;;;21.27;;
38797;SDS011;24546;52.240;16.826;2023-02-28T22:42:32;39.22;;;19.98;;
38797;SDS011;24546;52.240;16.826;2023-02-28T22:47:34;34.97;;;20.42;;
38797;SDS011;24546;52.240;16.826;2023-02-28T22:52:38;39.20;;;17.98;;
38797;SDS011;24546;52.240;16.826;2023-02-28T22:57:39;33.28;;;17.70;;
38797;SDS011;24546;52.240;16.826;2023-02-28T23:02:41;43.42;;;21.98;;
38797;SDS011;24546;52.240;16.826;2023-02-28T23:07:42;37.72;;;18.25;;
38797;SDS011;24546;52.240;16.826;2023-02-28T23:12:44;36.00;;;18.60;;
38797;SDS011;24546;52.240;16.826;2023-02-28T23:17:51;39.97;;;19.63;;
38797;SDS011;24546;52.240;16.826;2023-02-28T23:22:52;54.13;;;25.52;;
38797;SDS011;24546;52.240;16.826;2023-02-28T23:27:53;65.95;;;30.58;;
38797;SDS011;24546;52.240;16.826;2023-02-28T23:32:54;79.38;;;35.35;;
38797;SDS011;24546;52.240;16.826;2023-02-28T23:37:55;90.65;;;38.50;;
38797;SDS011;24546;52.240;16.826;2023-02-28T23:42:57;93.53;;;41.08;;
38797;SDS011;24546;52.240;16.826;2023-02-28T23:47:58;100.95;;;41.85;;
38797;SDS011;24546;52.240;16.826;2023-02-28T23:52:59;94.97;;;40.35;;
38797;SDS011;24546;52.240;16.826;2023-02-28T23:58:00;91.80;;;39.15;;
